sensor_id;sensor_type;location;lat;lon;timestamp;P1;durP1;ratioP1;P2;durP2;ratioP2
211;SDS011;16228;48.800;9.002;2022-07-30T00:01:06;4.70;;;4.30;;
211;SDS011;16228;48.800;9.002;2022-07-30T00:03:33;5.93;;;4.37;;
211;SDS011;16228;48.800;9.002;2022-07-30T00:06:00;5.30;;;4.80;;
211;SDS011;16228;48.800;9.002;2022-07-30T00:08:28;5.90;;;5.30;;
211;SDS011;16228;48.800;9.002;2022-07-30T00:10:55;7.07;;;4.43;;
211;SDS011;16228;48.800;9.002;2022-07-30T00:13:22;4.70;;;4.30;;
211;SDS011;16228;48.800;9.002;2022-07-30T00:15:49;4.87;;;4.47;;
211;SDS011;16228;48.800;9.002;2022-07-30T00:18:16;5.10;;;3.87;;
211;SDS011;16228;48.800;9.002;2022-07-30T00:20:43;4.80;;;4.23;;
211;SDS011;16228;48.800;9.002;2022-07-30T00:23:10;5.23;;;4.13;;
211;SDS011;16228;48.800;9.002;2022-07-30T00:25:38;5.90;;;4.53;;
211;SDS011;16228;48.800;9.002;2022-07-30T00:28:05;4.60;;;4.20;;
211;SDS011;16228;48.800;9.002;2022-07-30T00:30:32;4.07;;;3.77;;
211;SDS011;16228;48.800;9.002;2022-07-30T00:33:00;5.03;;;4.23;;
211;SDS011;16228;48.800;9.002;2022-07-30T00:35:27;4.43;;;4.03;;
211;SDS011;16228;48.800;9.002;2022-07-30T00:37:54;4.47;;;4.10;;
211;SDS011;16228;48.800;9.002;2022-07-30T00:40:21;4.17;;;3.87;;
211;SDS011;16228;48.800;9.002;2022-07-30T00:42:49;4.10;;;3.70;;
211;SDS011;16228;48.800;9.002;2022-07-30T00:45:16;4.53;;;4.17;;
211;SDS011;16228;48.800;9.002;2022-07-30T00:47:44;4.33;;;3.73;;
211;SDS011;16228;48.800;9.002;2022-07-30T00:50:12;4.33;;;3.60;;
211;SDS011;16228;48.800;9.002;2022-07-30T00:52:40;4.50;;;4.10;;
211;SDS011;16228;48.800;9.002;2022-07-30T00:55:09;5.67;;;4.07;;
211;SDS011;16228;48.800;9.002;2022-07-30T00:57:38;4.03;;;3.60;;
211;SDS011;16228;48.800;9.002;2022-07-30T01:00:08;4.13;;;3.83;;
211;SDS011;16228;48.800;9.002;2022-07-30T01:02:37;4.00;;;3.70;;
211;SDS011;16228;48.800;9.002;2022-07-30T01:05:05;4.30;;;3.90;;
211;SDS011;16228;48.800;9.002;2022-07-30T01:07:33;5.50;;;3.80;;
211;SDS011;16228;48.800;9.002;2022-07-30T01:10:00;4.17;;;3.80;;
211;SDS011;16228;48.800;9.002;2022-07-30T01:12:27;4.30;;;3.90;;
211;SDS011;16228;48.800;9.002;2022-07-30T01:14:55;5.47;;;4.47;;
211;SDS011;16228;48.800;9.002;2022-07-30T01:17:24;4.53;;;4.13;;
211;SDS011;16228;48.800;9.002;2022-07-30T01:19:53;5.27;;;4.77;;
211;SDS011;16228;48.800;9.002;2022-07-30T01:22:28;4.87;;;3.80;;
211;SDS011;16228;48.800;9.002;2022-07-30T01:25:10;5.27;;;4.07;;
211;SDS011;16228;48.800;9.002;2022-07-30T01:27:44;4.47;;;3.90;;
211;SDS011;16228;48.800;9.002;2022-07-30T01:30:16;4.17;;;3.87;;
211;SDS011;16228;48.800;9.002;2022-07-30T01:32:44;5.33;;;4.57;;
211;SDS011;16228;48.800;9.002;2022-07-30T01:35:13;4.30;;;3.60;;
211;SDS011;16228;48.800;9.002;2022-07-30T01:37:40;4.20;;;3.90;;
211;SDS011;16228;48.800;9.002;2022-07-30T01:40:10;4.97;;;4.57;;
211;SDS011;16228;48.800;9.002;2022-07-30T01:42:39;4.80;;;4.30;;
211;SDS011;16228;48.800;9.002;2022-07-30T01:45:09;5.67;;;5.03;;
211;SDS011;16228;48.800;9.002;2022-07-30T01:47:38;5.17;;;4.67;;
211;SDS011;16228;48.800;9.002;2022-07-30T01:50:08;5.07;;;4.53;;
211;SDS011;16228;48.800;9.002;2022-07-30T01:52:39;6.60;;;5.87;;
211;SDS011;16228;48.800;9.002;2022-07-30T01:55:09;6.57;;;5.67;;
211;SDS011;16228;48.800;9.002;2022-07-30T01:57:40;6.07;;;5.53;;
211;SDS011;16228;48.800;9.002;2022-07-30T02:00:09;6.23;;;5.73;;
211;SDS011;16228;48.800;9.002;2022-07-30T02:02:36;5.77;;;5.27;;
211;SDS011;16228;48.800;9.002;2022-07-30T02:05:05;5.23;;;4.73;;
211;SDS011;16228;48.800;9.002;2022-07-30T02:07:34;8.33;;;5.37;;
211;SDS011;16228;48.800;9.002;2022-07-30T02:10:06;5.23;;;4.70;;
211;SDS011;16228;48.800;9.002;2022-07-30T02:12:37;6.03;;;5.43;;
211;SDS011;16228;48.800;9.002;2022-07-30T02:15:12;7.10;;;5.20;;
211;SDS011;16228;48.800;9.002;2022-07-30T02:17:44;6.23;;;5.63;;
211;SDS011;16228;48.800;9.002;2022-07-30T02:20:15;6.50;;;5.90;;
211;SDS011;16228;48.800;9.002;2022-07-30T02:22:44;6.00;;;5.40;;
211;SDS011;16228;48.800;9.002;2022-07-30T02:25:12;6.17;;;5.60;;
211;SDS011;16228;48.800;9.002;2022-07-30T02:27:43;6.87;;;6.20;;
211;SDS011;16228;48.800;9.002;2022-07-30T02:30:15;5.80;;;5.30;;
211;SDS011;16228;48.800;9.002;2022-07-30T02:32:43;6.30;;;5.83;;
211;SDS011;16228;48.800;9.002;2022-07-30T02:35:16;6.90;;;6.30;;
211;SDS011;16228;48.800;9.002;2022-07-30T02:37:46;6.70;;;5.97;;
211;SDS011;16228;48.800;9.002;2022-07-30T02:40:17;7.00;;;6.30;;
211;SDS011;16228;48.800;9.002;2022-07-30T02:42:46;7.93;;;5.63;;
211;SDS011;16228;48.800;9.002;2022-07-30T02:45:18;6.63;;;6.03;;
211;SDS011;16228;48.800;9.002;2022-07-30T02:47:47;7.63;;;6.90;;
211;SDS011;16228;48.800;9.002;2022-07-30T02:50:18;5.73;;;5.17;;
211;SDS011;16228;48.800;9.002;2022-07-30T02:52:47;6.30;;;5.80;;
211;SDS011;16228;48.800;9.002;2022-07-30T02:55:16;6.90;;;6.23;;
211;SDS011;16228;48.800;9.002;2022-07-30T02:57:44;6.27;;;5.77;;
211;SDS011;16228;48.800;9.002;2022-07-30T03:00:12;6.80;;;5.60;;
211;SDS011;16228;48.800;9.002;2022-07-30T03:02:41;7.13;;;6.47;;
211;SDS011;16228;48.800;9.002;2022-07-30T03:05:10;6.50;;;5.90;;
211;SDS011;16228;48.800;9.002;2022-07-30T03:07:38;8.27;;;7.43;;
211;SDS011;16228;48.800;9.002;2022-07-30T03:10:06;7.17;;;6.57;;
211;SDS011;16228;48.800;9.002;2022-07-30T03:12:34;6.07;;;5.47;;
211;SDS011;16228;48.800;9.002;2022-07-30T03:15:04;8.03;;;7.27;;
211;SDS011;16228;48.800;9.002;2022-07-30T03:17:34;8.00;;;7.20;;
211;SDS011;16228;48.800;9.002;2022-07-30T03:20:06;6.90;;;6.30;;
211;SDS011;16228;48.800;9.002;2022-07-30T03:22:36;7.43;;;6.87;;
211;SDS011;16228;48.800;9.002;2022-07-30T03:25:07;6.40;;;5.90;;
211;SDS011;16228;48.800;9.002;2022-07-30T03:27:37;7.43;;;6.60;;
211;SDS011;16228;48.800;9.002;2022-07-30T03:30:05;8.30;;;7.43;;
211;SDS011;16228;48.800;9.002;2022-07-30T03:32:33;8.80;;;8.10;;
211;SDS011;16228;48.800;9.002;2022-07-30T03:35:01;9.47;;;8.67;;
211;SDS011;16228;48.800;9.002;2022-07-30T03:37:30;9.93;;;9.13;;
211;SDS011;16228;48.800;9.002;2022-07-30T03:39:57;8.13;;;7.53;;
211;SDS011;16228;48.800;9.002;2022-07-30T03:42:25;9.77;;;8.87;;
211;SDS011;16228;48.800;9.002;2022-07-30T03:44:53;9.47;;;8.60;;
211;SDS011;16228;48.800;9.002;2022-07-30T03:47:20;8.90;;;8.10;;
211;SDS011;16228;48.800;9.002;2022-07-30T03:49:48;9.37;;;8.47;;
211;SDS011;16228;48.800;9.002;2022-07-30T03:52:16;9.87;;;8.93;;
211;SDS011;16228;48.800;9.002;2022-07-30T03:54:45;9.67;;;8.87;;
211;SDS011;16228;48.800;9.002;2022-07-30T03:57:12;10.90;;;9.97;;
211;SDS011;16228;48.800;9.002;2022-07-30T03:59:40;10.47;;;9.57;;
211;SDS011;16228;48.800;9.002;2022-07-30T04:02:07;9.10;;;8.30;;
211;SDS011;16228;48.800;9.002;2022-07-30T04:04:34;10.97;;;10.00;;
211;SDS011;16228;48.800;9.002;2022-07-30T04:07:01;10.60;;;9.50;;
211;SDS011;16228;48.800;9.002;2022-07-30T04:09:28;9.83;;;9.03;;
211;SDS011;16228;48.800;9.002;2022-07-30T04:11:56;9.67;;;8.77;;
211;SDS011;16228;48.800;9.002;2022-07-30T04:14:23;8.57;;;7.67;;
211;SDS011;16228;48.800;9.002;2022-07-30T04:16:52;11.13;;;10.23;;
211;SDS011;16228;48.800;9.002;2022-07-30T04:19:25;10.60;;;9.50;;
211;SDS011;16228;48.800;9.002;2022-07-30T04:21:56;11.37;;;10.30;;
211;SDS011;16228;48.800;9.002;2022-07-30T04:24:26;10.20;;;9.30;;
211;SDS011;16228;48.800;9.002;2022-07-30T04:26:54;10.73;;;9.73;;
211;SDS011;16228;48.800;9.002;2022-07-30T04:29:23;9.93;;;9.17;;
211;SDS011;16228;48.800;9.002;2022-07-30T04:31:51;11.50;;;10.60;;
211;SDS011;16228;48.800;9.002;2022-07-30T04:34:20;9.70;;;8.90;;
211;SDS011;16228;48.800;9.002;2022-07-30T04:36:47;11.07;;;10.07;;
211;SDS011;16228;48.800;9.002;2022-07-30T04:39:14;10.20;;;9.17;;
211;SDS011;16228;48.800;9.002;2022-07-30T04:41:41;9.90;;;9.03;;
211;SDS011;16228;48.800;9.002;2022-07-30T04:44:09;10.33;;;9.40;;
211;SDS011;16228;48.800;9.002;2022-07-30T04:46:37;10.57;;;9.67;;
211;SDS011;16228;48.800;9.002;2022-07-30T04:49:04;10.57;;;9.57;;
211;SDS011;16228;48.800;9.002;2022-07-30T04:51:31;11.83;;;10.50;;
211;SDS011;16228;48.800;9.002;2022-07-30T04:54:00;11.13;;;10.03;;
211;SDS011;16228;48.800;9.002;2022-07-30T04:56:30;9.80;;;8.97;;
211;SDS011;16228;48.800;9.002;2022-07-30T04:58:59;9.93;;;9.03;;
211;SDS011;16228;48.800;9.002;2022-07-30T05:01:30;10.77;;;9.70;;
211;SDS011;16228;48.800;9.002;2022-07-30T05:04:00;9.90;;;8.90;;
211;SDS011;16228;48.800;9.002;2022-07-30T05:06:28;9.70;;;8.83;;
211;SDS011;16228;48.800;9.002;2022-07-30T05:08:56;8.70;;;8.00;;
211;SDS011;16228;48.800;9.002;2022-07-30T05:11:23;8.37;;;7.57;;
211;SDS011;16228;48.800;9.002;2022-07-30T05:13:50;9.10;;;8.40;;
211;SDS011;16228;48.800;9.002;2022-07-30T05:16:17;8.43;;;7.53;;
211;SDS011;16228;48.800;9.002;2022-07-30T05:18:45;7.87;;;7.13;;
211;SDS011;16228;48.800;9.002;2022-07-30T05:21:12;8.13;;;7.00;;
211;SDS011;16228;48.800;9.002;2022-07-30T05:23:39;8.03;;;7.23;;
211;SDS011;16228;48.800;9.002;2022-07-30T05:26:06;8.47;;;7.67;;
211;SDS011;16228;48.800;9.002;2022-07-30T05:28:33;8.77;;;7.80;;
211;SDS011;16228;48.800;9.002;2022-07-30T05:31:00;8.93;;;7.50;;
211;SDS011;16228;48.800;9.002;2022-07-30T05:33:27;8.47;;;6.83;;
211;SDS011;16228;48.800;9.002;2022-07-30T05:35:56;6.07;;;5.53;;
211;SDS011;16228;48.800;9.002;2022-07-30T05:38:24;7.13;;;5.33;;
211;SDS011;16228;48.800;9.002;2022-07-30T05:40:51;7.30;;;5.67;;
211;SDS011;16228;48.800;9.002;2022-07-30T05:43:18;6.67;;;5.97;;
211;SDS011;16228;48.800;9.002;2022-07-30T05:45:45;5.57;;;5.03;;
211;SDS011;16228;48.800;9.002;2022-07-30T05:48:12;6.10;;;5.13;;
211;SDS011;16228;48.800;9.002;2022-07-30T05:50:39;5.20;;;4.70;;
211;SDS011;16228;48.800;9.002;2022-07-30T05:53:07;5.40;;;4.87;;
211;SDS011;16228;48.800;9.002;2022-07-30T05:55:34;6.77;;;4.50;;
211;SDS011;16228;48.800;9.002;2022-07-30T05:58:01;5.77;;;4.50;;
211;SDS011;16228;48.800;9.002;2022-07-30T06:00:28;4.67;;;4.27;;
211;SDS011;16228;48.800;9.002;2022-07-30T06:02:55;6.50;;;4.97;;
211;SDS011;16228;48.800;9.002;2022-07-30T06:05:22;6.33;;;5.13;;
211;SDS011;16228;48.800;9.002;2022-07-30T06:07:49;6.63;;;5.23;;
211;SDS011;16228;48.800;9.002;2022-07-30T06:10:17;7.30;;;5.27;;
211;SDS011;16228;48.800;9.002;2022-07-30T06:12:45;4.80;;;3.90;;
211;SDS011;16228;48.800;9.002;2022-07-30T06:15:11;4.63;;;4.13;;
211;SDS011;16228;48.800;9.002;2022-07-30T06:17:42;7.20;;;4.90;;
211;SDS011;16228;48.800;9.002;2022-07-30T06:20:10;6.03;;;4.43;;
211;SDS011;16228;48.800;9.002;2022-07-30T06:22:38;4.70;;;4.30;;
211;SDS011;16228;48.800;9.002;2022-07-30T06:25:05;4.93;;;4.17;;
211;SDS011;16228;48.800;9.002;2022-07-30T06:27:34;4.73;;;3.80;;
211;SDS011;16228;48.800;9.002;2022-07-30T06:30:02;5.50;;;3.73;;
211;SDS011;16228;48.800;9.002;2022-07-30T06:32:31;5.17;;;3.80;;
211;SDS011;16228;48.800;9.002;2022-07-30T06:34:58;6.47;;;3.70;;
211;SDS011;16228;48.800;9.002;2022-07-30T06:37:25;6.13;;;3.70;;
211;SDS011;16228;48.800;9.002;2022-07-30T06:39:52;4.70;;;4.07;;
211;SDS011;16228;48.800;9.002;2022-07-30T06:42:19;5.83;;;4.17;;
211;SDS011;16228;48.800;9.002;2022-07-30T06:44:48;6.17;;;4.00;;
211;SDS011;16228;48.800;9.002;2022-07-30T06:47:18;4.70;;;4.17;;
211;SDS011;16228;48.800;9.002;2022-07-30T06:49:45;5.70;;;4.20;;
211;SDS011;16228;48.800;9.002;2022-07-30T06:52:12;4.93;;;4.27;;
211;SDS011;16228;48.800;9.002;2022-07-30T06:54:39;5.17;;;3.80;;
211;SDS011;16228;48.800;9.002;2022-07-30T06:57:06;5.07;;;4.47;;
211;SDS011;16228;48.800;9.002;2022-07-30T06:59:33;5.80;;;4.00;;
211;SDS011;16228;48.800;9.002;2022-07-30T07:02:01;5.57;;;3.80;;
211;SDS011;16228;48.800;9.002;2022-07-30T07:04:28;5.77;;;4.00;;
211;SDS011;16228;48.800;9.002;2022-07-30T07:06:56;4.00;;;3.07;;
211;SDS011;16228;48.800;9.002;2022-07-30T07:09:23;5.07;;;3.87;;
211;SDS011;16228;48.800;9.002;2022-07-30T07:11:50;4.10;;;3.53;;
211;SDS011;16228;48.800;9.002;2022-07-30T07:14:17;6.20;;;4.37;;
211;SDS011;16228;48.800;9.002;2022-07-30T07:16:44;4.50;;;3.23;;
211;SDS011;16228;48.800;9.002;2022-07-30T07:19:15;6.30;;;3.20;;
211;SDS011;16228;48.800;9.002;2022-07-30T07:21:41;4.17;;;3.27;;
211;SDS011;16228;48.800;9.002;2022-07-30T07:24:08;5.07;;;2.80;;
211;SDS011;16228;48.800;9.002;2022-07-30T07:26:36;6.67;;;3.10;;
211;SDS011;16228;48.800;9.002;2022-07-30T07:29:03;4.15;;;2.40;;
211;SDS011;16228;48.800;9.002;2022-07-30T07:31:30;2.58;;;2.35;;
211;SDS011;16228;48.800;9.002;2022-07-30T07:33:57;3.47;;;2.72;;
211;SDS011;16228;48.800;9.002;2022-07-30T07:36:26;4.38;;;2.30;;
211;SDS011;16228;48.800;9.002;2022-07-30T07:38:53;4.35;;;2.40;;
211;SDS011;16228;48.800;9.002;2022-07-30T07:41:20;4.15;;;2.63;;
211;SDS011;16228;48.800;9.002;2022-07-30T07:43:47;2.95;;;2.28;;
211;SDS011;16228;48.800;9.002;2022-07-30T07:46:14;2.65;;;2.20;;
211;SDS011;16228;48.800;9.002;2022-07-30T07:48:41;1.90;;;1.70;;
211;SDS011;16228;48.800;9.002;2022-07-30T07:51:08;3.42;;;2.17;;
211;SDS011;16228;48.800;9.002;2022-07-30T07:53:37;4.32;;;2.45;;
211;SDS011;16228;48.800;9.002;2022-07-30T07:56:04;2.25;;;1.73;;
211;SDS011;16228;48.800;9.002;2022-07-30T07:58:32;3.78;;;2.30;;
211;SDS011;16228;48.800;9.002;2022-07-30T08:01:00;3.60;;;2.10;;
211;SDS011;16228;48.800;9.002;2022-07-30T08:03:27;2.15;;;1.88;;
211;SDS011;16228;48.800;9.002;2022-07-30T08:05:54;3.05;;;2.30;;
211;SDS011;16228;48.800;9.002;2022-07-30T08:08:21;4.35;;;2.40;;
211;SDS011;16228;48.800;9.002;2022-07-30T08:10:49;4.13;;;2.15;;
211;SDS011;16228;48.800;9.002;2022-07-30T08:13:17;3.28;;;2.10;;
211;SDS011;16228;48.800;9.002;2022-07-30T08:15:43;3.60;;;1.80;;
211;SDS011;16228;48.800;9.002;2022-07-30T08:18:10;4.75;;;2.58;;
211;SDS011;16228;48.800;9.002;2022-07-30T08:20:38;1.98;;;1.70;;
211;SDS011;16228;48.800;9.002;2022-07-30T08:23:05;2.30;;;1.88;;
211;SDS011;16228;48.800;9.002;2022-07-30T08:25:32;2.40;;;1.50;;
211;SDS011;16228;48.800;9.002;2022-07-30T08:28:01;4.65;;;2.10;;
211;SDS011;16228;48.800;9.002;2022-07-30T08:30:28;4.13;;;1.63;;
211;SDS011;16228;48.800;9.002;2022-07-30T08:32:55;3.78;;;2.22;;
211;SDS011;16228;48.800;9.002;2022-07-30T08:35:22;5.82;;;1.73;;
211;SDS011;16228;48.800;9.002;2022-07-30T08:37:49;3.67;;;1.70;;
211;SDS011;16228;48.800;9.002;2022-07-30T08:40:17;3.05;;;1.80;;
211;SDS011;16228;48.800;9.002;2022-07-30T08:42:45;3.72;;;1.67;;
211;SDS011;16228;48.800;9.002;2022-07-30T08:45:13;3.45;;;2.30;;
211;SDS011;16228;48.800;9.002;2022-07-30T08:47:43;4.72;;;2.15;;
211;SDS011;16228;48.800;9.002;2022-07-30T08:50:11;2.35;;;1.70;;
211;SDS011;16228;48.800;9.002;2022-07-30T08:52:39;2.00;;;1.55;;
211;SDS011;16228;48.800;9.002;2022-07-30T08:55:07;2.72;;;1.77;;
211;SDS011;16228;48.800;9.002;2022-07-30T08:57:35;2.08;;;1.63;;
211;SDS011;16228;48.800;9.002;2022-07-30T09:00:03;4.47;;;2.03;;
211;SDS011;16228;48.800;9.002;2022-07-30T09:02:34;2.35;;;1.50;;
211;SDS011;16228;48.800;9.002;2022-07-30T09:05:01;3.05;;;1.60;;
211;SDS011;16228;48.800;9.002;2022-07-30T09:07:28;2.97;;;2.10;;
211;SDS011;16228;48.800;9.002;2022-07-30T09:09:57;2.15;;;1.55;;
211;SDS011;16228;48.800;9.002;2022-07-30T09:12:31;3.47;;;2.00;;
211;SDS011;16228;48.800;9.002;2022-07-30T09:15:05;2.40;;;1.60;;
211;SDS011;16228;48.800;9.002;2022-07-30T09:17:49;4.80;;;2.08;;
211;SDS011;16228;48.800;9.002;2022-07-30T09:20:18;3.78;;;2.00;;
211;SDS011;16228;48.800;9.002;2022-07-30T09:22:46;2.03;;;1.45;;
211;SDS011;16228;48.800;9.002;2022-07-30T09:25:14;2.60;;;1.40;;
211;SDS011;16228;48.800;9.002;2022-07-30T09:27:57;1.55;;;1.30;;
211;SDS011;16228;48.800;9.002;2022-07-30T09:30:24;3.25;;;1.67;;
211;SDS011;16228;48.800;9.002;2022-07-30T09:32:54;2.83;;;1.40;;
211;SDS011;16228;48.800;9.002;2022-07-30T09:35:22;2.90;;;1.95;;
211;SDS011;16228;48.800;9.002;2022-07-30T09:37:56;2.85;;;1.63;;
211;SDS011;16228;48.800;9.002;2022-07-30T09:40:24;1.83;;;1.35;;
211;SDS011;16228;48.800;9.002;2022-07-30T09:43:00;3.28;;;1.70;;
211;SDS011;16228;48.800;9.002;2022-07-30T09:45:28;2.50;;;1.50;;
211;SDS011;16228;48.800;9.002;2022-07-30T09:47:57;4.35;;;1.50;;
211;SDS011;16228;48.800;9.002;2022-07-30T09:50:24;2.03;;;1.55;;
211;SDS011;16228;48.800;9.002;2022-07-30T09:52:51;2.47;;;1.70;;
211;SDS011;16228;48.800;9.002;2022-07-30T09:55:28;4.32;;;1.60;;
211;SDS011;16228;48.800;9.002;2022-07-30T09:57:57;2.65;;;1.42;;
211;SDS011;16228;48.800;9.002;2022-07-30T10:00:25;4.60;;;1.45;;
211;SDS011;16228;48.800;9.002;2022-07-30T10:02:54;3.78;;;1.48;;
211;SDS011;16228;48.800;9.002;2022-07-30T10:05:23;3.67;;;1.60;;
211;SDS011;16228;48.800;9.002;2022-07-30T10:07:50;3.58;;;1.58;;
211;SDS011;16228;48.800;9.002;2022-07-30T10:10:19;1.67;;;1.25;;
211;SDS011;16228;48.800;9.002;2022-07-30T10:12:49;2.13;;;1.10;;
211;SDS011;16228;48.800;9.002;2022-07-30T10:15:18;2.88;;;1.70;;
211;SDS011;16228;48.800;9.002;2022-07-30T10:17:46;1.58;;;1.10;;
211;SDS011;16228;48.800;9.002;2022-07-30T10:20:13;2.03;;;1.10;;
211;SDS011;16228;48.800;9.002;2022-07-30T10:22:43;2.15;;;1.30;;
211;SDS011;16228;48.800;9.002;2022-07-30T10:25:10;2.47;;;1.48;;
211;SDS011;16228;48.800;9.002;2022-07-30T10:27:38;1.48;;;1.35;;
211;SDS011;16228;48.800;9.002;2022-07-30T10:30:06;4.13;;;1.20;;
211;SDS011;16228;48.800;9.002;2022-07-30T10:32:33;10.20;;;1.85;;
211;SDS011;16228;48.800;9.002;2022-07-30T10:35:02;3.63;;;1.40;;
211;SDS011;16228;48.800;9.002;2022-07-30T10:37:31;2.38;;;1.20;;
211;SDS011;16228;48.800;9.002;2022-07-30T10:40:03;2.50;;;1.27;;
211;SDS011;16228;48.800;9.002;2022-07-30T10:42:40;1.48;;;1.08;;
211;SDS011;16228;48.800;9.002;2022-07-30T10:45:22;3.55;;;1.50;;
211;SDS011;16228;48.800;9.002;2022-07-30T10:47:54;2.08;;;1.15;;
211;SDS011;16228;48.800;9.002;2022-07-30T10:50:23;6.35;;;1.40;;
211;SDS011;16228;48.800;9.002;2022-07-30T10:52:53;2.15;;;1.25;;
211;SDS011;16228;48.800;9.002;2022-07-30T10:55:23;1.75;;;1.10;;
211;SDS011;16228;48.800;9.002;2022-07-30T10:57:59;2.85;;;1.40;;
211;SDS011;16228;48.800;9.002;2022-07-30T11:00:27;2.67;;;1.52;;
211;SDS011;16228;48.800;9.002;2022-07-30T11:03:11;2.20;;;1.25;;
211;SDS011;16228;48.800;9.002;2022-07-30T11:05:40;1.35;;;1.00;;
211;SDS011;16228;48.800;9.002;2022-07-30T11:11:01;2.50;;;1.20;;
211;SDS011;16228;48.800;9.002;2022-07-30T11:13:49;1.55;;;1.10;;
211;SDS011;16228;48.800;9.002;2022-07-30T11:16:18;1.63;;;1.20;;
211;SDS011;16228;48.800;9.002;2022-07-30T11:19:01;3.03;;;1.25;;
211;SDS011;16228;48.800;9.002;2022-07-30T11:21:34;2.42;;;1.60;;
211;SDS011;16228;48.800;9.002;2022-07-30T11:24:01;1.65;;;1.55;;
211;SDS011;16228;48.800;9.002;2022-07-30T11:29:33;2.00;;;1.20;;
211;SDS011;16228;48.800;9.002;2022-07-30T11:35:10;4.75;;;1.50;;
211;SDS011;16228;48.800;9.002;2022-07-30T11:37:53;1.50;;;1.30;;
211;SDS011;16228;48.800;9.002;2022-07-30T11:40:25;1.88;;;1.20;;
211;SDS011;16228;48.800;9.002;2022-07-30T11:45:48;2.25;;;1.13;;
211;SDS011;16228;48.800;9.002;2022-07-30T11:48:17;2.38;;;1.23;;
211;SDS011;16228;48.800;9.002;2022-07-30T11:50:45;1.60;;;1.35;;
211;SDS011;16228;48.800;9.002;2022-07-30T11:53:14;1.42;;;1.30;;
211;SDS011;16228;48.800;9.002;2022-07-30T11:55:43;2.60;;;1.40;;
211;SDS011;16228;48.800;9.002;2022-07-30T12:01:02;1.88;;;1.27;;
211;SDS011;16228;48.800;9.002;2022-07-30T12:03:30;2.83;;;1.40;;
211;SDS011;16228;48.800;9.002;2022-07-30T12:06:01;2.70;;;1.40;;
211;SDS011;16228;48.800;9.002;2022-07-30T12:08:29;3.17;;;1.20;;
211;SDS011;16228;48.800;9.002;2022-07-30T12:11:05;4.13;;;1.40;;
211;SDS011;16228;48.800;9.002;2022-07-30T12:13:34;1.70;;;1.00;;
211;SDS011;16228;48.800;9.002;2022-07-30T12:16:05;2.63;;;1.30;;
211;SDS011;16228;48.800;9.002;2022-07-30T12:18:34;1.00;;;1.00;;
211;SDS011;16228;48.800;9.002;2022-07-30T12:21:02;1.45;;;1.35;;
211;SDS011;16228;48.800;9.002;2022-07-30T12:23:32;2.30;;;1.30;;
211;SDS011;16228;48.800;9.002;2022-07-30T12:25:59;2.85;;;1.30;;
211;SDS011;16228;48.800;9.002;2022-07-30T12:28:28;3.90;;;1.52;;
211;SDS011;16228;48.800;9.002;2022-07-30T12:30:58;1.95;;;1.60;;
211;SDS011;16228;48.800;9.002;2022-07-30T12:33:27;2.53;;;1.42;;
211;SDS011;16228;48.800;9.002;2022-07-30T12:35:54;1.70;;;1.60;;
211;SDS011;16228;48.800;9.002;2022-07-30T12:38:24;1.83;;;1.30;;
211;SDS011;16228;48.800;9.002;2022-07-30T12:40:52;2.15;;;1.20;;
211;SDS011;16228;48.800;9.002;2022-07-30T12:46:09;2.63;;;1.33;;
211;SDS011;16228;48.800;9.002;2022-07-30T12:48:37;3.15;;;1.25;;
211;SDS011;16228;48.800;9.002;2022-07-30T12:51:13;3.63;;;1.50;;
211;SDS011;16228;48.800;9.002;2022-07-30T12:53:40;1.77;;;1.42;;
211;SDS011;16228;48.800;9.002;2022-07-30T12:56:10;1.20;;;1.10;;
211;SDS011;16228;48.800;9.002;2022-07-30T12:58:38;2.17;;;1.40;;
211;SDS011;16228;48.800;9.002;2022-07-30T13:01:06;1.42;;;1.00;;
211;SDS011;16228;48.800;9.002;2022-07-30T13:03:35;1.80;;;1.20;;
211;SDS011;16228;48.800;9.002;2022-07-30T13:06:16;2.15;;;1.30;;
211;SDS011;16228;48.800;9.002;2022-07-30T13:08:44;3.00;;;1.20;;
211;SDS011;16228;48.800;9.002;2022-07-30T13:11:13;2.55;;;1.42;;
211;SDS011;16228;48.800;9.002;2022-07-30T13:13:40;1.88;;;1.20;;
211;SDS011;16228;48.800;9.002;2022-07-30T13:16:09;2.83;;;1.13;;
211;SDS011;16228;48.800;9.002;2022-07-30T13:18:36;1.27;;;0.85;;
211;SDS011;16228;48.800;9.002;2022-07-30T13:21:03;2.42;;;1.23;;
211;SDS011;16228;48.800;9.002;2022-07-30T13:23:33;3.25;;;1.38;;
211;SDS011;16228;48.800;9.002;2022-07-30T13:26:01;1.83;;;1.10;;
211;SDS011;16228;48.800;9.002;2022-07-30T13:28:28;1.30;;;1.10;;
211;SDS011;16228;48.800;9.002;2022-07-30T13:30:56;2.17;;;1.30;;
211;SDS011;16228;48.800;9.002;2022-07-30T13:33:25;1.50;;;1.13;;
211;SDS011;16228;48.800;9.002;2022-07-30T13:35:52;2.90;;;1.30;;
211;SDS011;16228;48.800;9.002;2022-07-30T13:38:19;2.03;;;1.23;;
211;SDS011;16228;48.800;9.002;2022-07-30T13:40:46;1.80;;;1.50;;
211;SDS011;16228;48.800;9.002;2022-07-30T13:43:13;1.90;;;1.47;;
211;SDS011;16228;48.800;9.002;2022-07-30T13:45:40;4.80;;;1.60;;
211;SDS011;16228;48.800;9.002;2022-07-30T13:48:07;1.30;;;1.20;;
211;SDS011;16228;48.800;9.002;2022-07-30T13:50:36;1.40;;;1.30;;
211;SDS011;16228;48.800;9.002;2022-07-30T13:53:03;1.80;;;1.50;;
211;SDS011;16228;48.800;9.002;2022-07-30T13:55:30;4.30;;;1.50;;
211;SDS011;16228;48.800;9.002;2022-07-30T13:57:58;2.13;;;1.50;;
211;SDS011;16228;48.800;9.002;2022-07-30T14:00:25;2.77;;;1.63;;
211;SDS011;16228;48.800;9.002;2022-07-30T14:02:57;1.67;;;1.53;;
211;SDS011;16228;48.800;9.002;2022-07-30T14:05:25;1.30;;;1.20;;
211;SDS011;16228;48.800;9.002;2022-07-30T14:07:53;3.40;;;1.43;;
211;SDS011;16228;48.800;9.002;2022-07-30T14:10:20;2.20;;;1.40;;
211;SDS011;16228;48.800;9.002;2022-07-30T14:12:48;2.37;;;1.40;;
211;SDS011;16228;48.800;9.002;2022-07-30T14:15:15;1.43;;;1.23;;
211;SDS011;16228;48.800;9.002;2022-07-30T14:17:42;3.47;;;1.30;;
211;SDS011;16228;48.800;9.002;2022-07-30T14:20:09;1.50;;;1.40;;
211;SDS011;16228;48.800;9.002;2022-07-30T14:22:37;1.33;;;1.10;;
211;SDS011;16228;48.800;9.002;2022-07-30T14:25:06;2.17;;;1.40;;
211;SDS011;16228;48.800;9.002;2022-07-30T14:27:33;2.30;;;1.20;;
211;SDS011;16228;48.800;9.002;2022-07-30T14:30:01;3.83;;;1.60;;
211;SDS011;16228;48.800;9.002;2022-07-30T14:32:29;1.30;;;1.20;;
211;SDS011;16228;48.800;9.002;2022-07-30T14:34:56;1.83;;;1.40;;
211;SDS011;16228;48.800;9.002;2022-07-30T14:37:23;1.53;;;1.40;;
211;SDS011;16228;48.800;9.002;2022-07-30T14:39:50;1.20;;;1.10;;
211;SDS011;16228;48.800;9.002;2022-07-30T14:42:18;1.83;;;1.30;;
211;SDS011;16228;48.800;9.002;2022-07-30T14:44:45;1.60;;;1.17;;
211;SDS011;16228;48.800;9.002;2022-07-30T14:47:13;2.33;;;1.33;;
211;SDS011;16228;48.800;9.002;2022-07-30T14:49:40;1.37;;;1.10;;
211;SDS011;16228;48.800;9.002;2022-07-30T14:52:08;0.87;;;0.87;;
211;SDS011;16228;48.800;9.002;2022-07-30T14:54:35;1.30;;;1.20;;
211;SDS011;16228;48.800;9.002;2022-07-30T14:57:02;1.30;;;1.20;;
211;SDS011;16228;48.800;9.002;2022-07-30T14:59:34;2.57;;;1.10;;
211;SDS011;16228;48.800;9.002;2022-07-30T15:02:01;1.57;;;1.07;;
211;SDS011;16228;48.800;9.002;2022-07-30T15:04:29;2.60;;;1.20;;
211;SDS011;16228;48.800;9.002;2022-07-30T15:06:56;2.30;;;1.33;;
211;SDS011;16228;48.800;9.002;2022-07-30T15:09:23;2.33;;;1.10;;
211;SDS011;16228;48.800;9.002;2022-07-30T15:11:50;1.40;;;1.00;;
211;SDS011;16228;48.800;9.002;2022-07-30T15:14:17;0.90;;;0.90;;
211;SDS011;16228;48.800;9.002;2022-07-30T15:16:45;1.70;;;1.10;;
211;SDS011;16228;48.800;9.002;2022-07-30T15:19:12;2.23;;;1.40;;
211;SDS011;16228;48.800;9.002;2022-07-30T15:21:39;1.40;;;1.20;;
211;SDS011;16228;48.800;9.002;2022-07-30T15:24:08;1.37;;;1.07;;
211;SDS011;16228;48.800;9.002;2022-07-30T15:26:35;1.20;;;1.07;;
211;SDS011;16228;48.800;9.002;2022-07-30T15:29:02;1.07;;;0.97;;
211;SDS011;16228;48.800;9.002;2022-07-30T15:31:29;2.57;;;0.93;;
211;SDS011;16228;48.800;9.002;2022-07-30T15:33:57;2.00;;;1.03;;
211;SDS011;16228;48.800;9.002;2022-07-30T15:36:24;1.57;;;1.10;;
211;SDS011;16228;48.800;9.002;2022-07-30T15:38:52;1.13;;;0.90;;
211;SDS011;16228;48.800;9.002;2022-07-30T15:41:19;1.47;;;1.37;;